Time;durP1;ratioP1;P1;durP2;ratioP2;P2;SDS_P1;SDS_P2;PMS_P1;PMS_P2;Temp;Humidity;BMP_temperature;BMP_pressure;BME280_temperature;BME280_humidity;BME280_pressure;Samples;Min_cycle;Max_cycle;Signal;HPM_P1;HPM_P2
2024/02/16 00:01:17;;;;;;;2.42;1.52;;;;;;;11.56;100.00;100563.53;5026179;28;20055;-84
2024/02/16 00:03:44;;;;;;;2.00;1.55;;;;;;;11.54;100.00;100560.94;5021291;28;20131;-84
2024/02/16 00:06:16;;;;;;;3.13;1.25;;;;;;;11.50;100.00;100564.50;5034788;28;20657;-83
2024/02/16 00:08:48;;;;;;;2.03;1.42;;;;;;;11.49;100.00;100554.03;5041091;28;20064;-84
2024/02/16 00:11:15;;;;;;;2.47;1.58;;;;;;;11.48;100.00;100555.78;5039518;28;20041;-82
2024/02/16 00:13:42;;;;;;;2.50;1.67;;;;;;;11.49;100.00;100564.53;5043033;28;20423;-83
2024/02/16 00:16:08;;;;;;;4.07;1.50;;;;;;;11.45;100.00;100565.47;5024709;28;20045;-85
2024/02/16 00:18:36;;;;;;;2.33;1.70;;;;;;;11.43;100.00;100565.47;5024388;28;20103;-83
2024/02/16 00:21:03;;;;;;;1.75;1.52;;;;;;;11.44;100.00;100568.97;5029717;28;20044;-83
2024/02/16 00:23:30;;;;;;;1.63;1.50;;;;;;;11.41;100.00;100559.38;5025421;28;20055;-82
2024/02/16 00:25:56;;;;;;;5.00;1.63;;;;;;;11.39;100.00;100566.41;5041346;28;20056;-83
2024/02/16 00:28:29;;;;;;;2.22;2.00;;;;;;;11.38;100.00;100551.56;5023660;28;20114;-84
2024/02/16 00:30:56;;;;;;;4.17;2.10;;;;;;;11.34;100.00;100544.63;5041244;28;20056;-84
2024/02/16 00:33:29;;;;;;;3.50;1.77;;;;;;;11.31;100.00;100545.53;5026417;28;20044;-84
2024/02/16 00:35:55;;;;;;;2.53;1.52;;;;;;;11.28;100.00;100542.06;5041887;28;20107;-83
2024/02/16 00:38:23;;;;;;;1.77;1.42;;;;;;;11.29;100.00;100536.84;5037353;28;20156;-84
2024/02/16 00:40:50;;;;;;;4.20;1.70;;;;;;;11.28;100.00;100536.84;5037934;28;20059;-83
2024/02/16 00:43:19;;;;;;;2.20;1.60;;;;;;;11.22;100.00;100519.47;5042281;28;20053;-84
2024/02/16 00:45:46;;;;;;;1.42;1.33;;;;;;;11.20;100.00;100527.34;5043261;28;21050;-83
2024/02/16 00:48:13;;;;;;;2.70;1.88;;;;;;;11.16;100.00;100532.63;5039826;28;20044;-85
2024/02/16 00:50:39;;;;;;;4.05;1.50;;;;;;;11.14;100.00;100529.19;5020752;28;20288;-83
2024/02/16 00:53:06;;;;;;;2.20;2.10;;;;;;;11.13;100.00;100537.94;5025408;28;20049;-85
2024/02/16 00:55:35;;;;;;;2.05;1.58;;;;;;;11.16;100.00;100530.00;5020698;28;20049;-82
2024/02/16 00:58:04;;;;;;;2.17;1.20;;;;;;;11.13;100.00;100524.81;5025934;28;20401;-83
2024/02/16 01:00:31;;;;;;;1.77;1.63;;;;;;;11.14;100.00;100516.94;5018751;28;20052;-84
2024/02/16 01:03:01;;;;;;;4.57;1.55;;;;;;;11.11;100.00;100510.88;5025507;28;20163;-84
2024/02/16 01:05:27;;;;;;;2.72;1.85;;;;;;;11.07;100.00;100516.16;5023528;28;20072;-81
2024/02/16 01:07:54;;;;;;;1.77;1.45;;;;;;;11.05;100.00;100511.81;5024367;28;20546;-84
2024/02/16 01:10:20;;;;;;;2.13;1.95;;;;;;;11.05;100.00;100509.22;5020833;28;20072;-84
2024/02/16 01:12:47;;;;;;;3.88;1.23;;;;;;;11.09;100.00;100513.50;5043000;28;20084;-84
2024/02/16 01:15:16;;;;;;;4.03;1.42;;;;;;;11.09;100.00;100513.50;5034996;28;20080;-83
2024/02/16 01:17:46;;;;;;;3.30;1.60;;;;;;;11.08;100.00;100507.41;5035980;28;20688;-84
2024/02/16 01:20:14;;;;;;;1.50;1.33;;;;;;;11.05;100.00;100504.81;5032398;28;20045;-83
2024/02/16 01:22:41;;;;;;;3.35;1.80;;;;;;;11.06;100.00;100506.56;5039638;28;20041;-84
2024/02/16 01:25:09;;;;;;;2.47;1.25;;;;;;;11.06;100.00;100506.56;5019641;28;20069;-83
2024/02/16 01:27:37;;;;;;;1.92;1.23;;;;;;;11.02;100.00;100504.88;5019902;28;20107;-83
2024/02/16 01:30:08;;;;;;;4.60;1.88;;;;;;;11.02;100.00;100506.63;5016803;28;20179;-84
2024/02/16 01:32:34;;;;;;;5.50;1.85;;;;;;;11.02;100.00;100504.88;5040773;28;20064;-83
2024/02/16 01:35:01;;;;;;;4.97;1.23;;;;;;;11.00;100.00;100508.41;5024850;28;20048;-83
2024/02/16 01:37:31;;;;;;;2.47;1.60;;;;;;;10.99;100.00;100499.69;5023260;28;20417;-82
2024/02/16 01:39:58;;;;;;;1.55;1.45;;;;;;;11.01;100.00;100497.03;5040563;28;20037;-82
2024/02/16 01:42:26;;;;;;;3.20;1.60;;;;;;;11.04;100.00;100492.63;5039896;28;20068;-82
2024/02/16 01:45:00;;;;;;;3.55;1.55;;;;;;;11.04;100.00;100495.25;5038495;28;20148;-81
2024/02/16 01:47:27;;;;;;;1.48;1.38;;;;;;;11.01;100.00;100482.19;5016832;28;20088;-81
2024/02/16 01:49:54;;;;;;;3.47;1.48;;;;;;;11.02;100.00;100493.53;5026081;28;20108;-82
2024/02/16 01:52:20;;;;;;;3.33;1.40;;;;;;;11.05;100.00;100485.63;5025923;28;20055;-82
2024/02/16 01:54:47;;;;;;;3.00;1.33;;;;;;;11.02;100.00;100480.44;5016333;28;20568;-81
2024/02/16 01:57:14;;;;;;;3.58;1.40;;;;;;;11.04;100.00;100471.69;5024169;28;20099;-82
2024/02/16 01:59:42;;;;;;;1.65;1.55;;;;;;;11.02;100.00;100469.97;5006070;28;20052;-82
2024/02/16 02:02:08;;;;;;;2.22;1.58;;;;;;;10.99;100.00;100472.59;5040640;28;20420;-81
2024/02/16 02:04:38;;;;;;;3.20;1.33;;;;;;;10.96;100.00;100473.50;5023240;28;20057;-82
2024/02/16 02:07:17;;;;;;;1.45;1.35;;;;;;;10.95;100.00;100477.03;5053755;28;20056;-81
2024/02/16 02:09:46;;;;;;;3.78;1.38;;;;;;;10.91;100.00;100468.34;5017873;28;20143;-82
2024/02/16 02:12:12;;;;;;;2.30;1.20;;;;;;;10.91;100.00;100475.34;5023573;28;20052;-81
2024/02/16 02:14:39;;;;;;;2.25;1.40;;;;;;;10.86;100.00;100475.41;5021393;28;20107;-81
2024/02/16 02:17:06;;;;;;;2.40;2.05;;;;;;;10.85;100.00;100476.28;5034897;28;20685;-81
2024/02/16 02:19:32;;;;;;;3.25;1.60;;;;;;;10.82;100.00;100476.34;5025511;28;20060;-80
2024/02/16 02:22:00;;;;;;;4.03;1.67;;;;;;;10.78;100.00;100476.38;5029620;28;20056;-81
2024/02/16 02:24:27;;;;;;;1.88;1.30;;;;;;;10.76;100.00;100473.78;5036530;28;20049;-83
2024/02/16 02:26:54;;;;;;;2.72;1.15;;;;;;;10.80;100.00;100456.28;5008563;28;20048;-81
2024/02/16 02:29:21;;;;;;;2.95;1.25;;;;;;;10.84;100.00;100452.75;5020943;28;20053;-83
2024/02/16 02:31:47;;;;;;;6.50;1.38;;;;;;;10.83;100.00;100449.25;5008471;28;20090;-81
2024/02/16 02:34:14;;;;;;;2.45;1.50;;;;;;;10.83;100.00;100443.16;5033077;28;20099;-82
2024/02/16 02:36:41;;;;;;;2.40;1.48;;;;;;;10.86;100.00;100453.56;5012075;28;20037;-81
2024/02/16 02:39:07;;;;;;;1.33;1.15;;;;;;;10.86;100.00;100457.06;5031314;28;20565;-80
2024/02/16 02:41:35;;;;;;;4.72;1.35;;;;;;;10.85;100.00;100455.34;5059395;28;20041;-82
2024/02/16 02:44:03;;;;;;;2.90;1.25;;;;;;;10.86;100.00;100457.06;5033615;28;20044;-82
2024/02/16 02:46:32;;;;;;;4.55;2.03;;;;;;;10.84;100.00;100450.13;5041523;28;20068;-81
2024/02/16 02:49:02;;;;;;;1.30;1.20;;;;;;;10.83;100.00;100449.25;5047224;28;20875;-84
2024/02/16 02:51:30;;;;;;;4.78;1.40;;;;;;;10.84;100.00;100435.28;5045923;28;20091;-81
2024/02/16 02:53:59;;;;;;;2.30;2.10;;;;;;;10.85;100.00;100430.91;5050994;28;20500;-82
2024/02/16 02:56:26;;;;;;;1.80;1.10;;;;;;;10.85;100.00;100426.53;5007668;28;20103;-81
2024/02/16 02:58:53;;;;;;;1.77;1.20;;;;;;;10.86;100.00;100416.91;5031728;28;20377;-81
2024/02/16 03:01:21;;;;;;;4.78;1.50;;;;;;;10.87;100.00;100424.78;5044073;28;20048;-80
2024/02/16 03:03:49;;;;;;;2.05;1.45;;;;;;;10.88;100.00;100415.16;5027925;28;20057;-82
2024/02/16 03:06:23;;;;;;;6.07;2.65;;;;;;;10.85;100.00;100412.59;5026894;28;20052;-82
2024/02/16 03:08:50;;;;;;;3.53;1.30;;;;;;;10.84;100.00;100416.94;5026302;28;20102;-82
2024/02/16 03:11:16;;;;;;;2.30;1.48;;;;;;;10.82;100.00;100423.97;5028436;28;20045;-81
2024/02/16 03:13:46;;;;;;;1.70;1.40;;;;;;;10.76;100.00;100417.03;5044720;28;20048;-80
2024/02/16 03:16:14;;;;;;;3.20;1.25;;;;;;;10.78;100.00;100422.28;5044904;28;20523;-81
2024/02/16 03:18:40;;;;;;;1.67;1.08;;;;;;;10.76;100.00;100410.97;5030521;28;20101;-82
2024/02/16 03:21:08;;;;;;;1.73;1.63;;;;;;;10.74;100.00;100417.94;5044339;28;20452;-81
2024/02/16 03:23:34;;;;;;;4.03;1.27;;;;;;;10.74;100.00;100413.59;5023939;28;20059;-82
2024/02/16 03:26:01;;;;;;;1.95;1.25;;;;;;;10.76;100.00;100411.81;5039081;28;20041;-82
2024/02/16 03:28:27;;;;;;;2.78;1.70;;;;;;;10.79;100.00;100405.66;5039204;28;20034;-81
2024/02/16 03:30:54;;;;;;;5.43;1.85;;;;;;;10.80;100.00;100415.25;5029972;28;20693;-81
2024/02/16 03:33:28;;;;;;;1.33;1.17;;;;;;;10.84;100.00;100408.22;5044380;28;20558;-81
2024/02/16 03:35:55;;;;;;;1.75;1.45;;;;;;;10.84;100.00;100400.38;5044088;28;20065;-81
2024/02/16 03:38:22;;;;;;;1.50;1.33;;;;;;;10.86;100.00;100407.31;5029556;28;20468;-82
2024/02/16 03:40:51;;;;;;;3.35;1.25;;;;;;;10.90;100.00;100403.78;5048229;28;20041;-83
2024/02/16 03:43:20;;;;;;;1.20;0.90;;;;;;;10.95;100.00;100408.06;5031028;28;20053;-82
2024/02/16 03:45:50;;;;;;;1.35;1.23;;;;;;;10.95;100.00;100408.06;5039411;28;20061;-81
2024/02/16 03:48:20;;;;;;;1.95;1.00;;;;;;;10.98;100.00;100400.19;5026576;28;20088;-81
2024/02/16 03:50:47;;;;;;;2.00;1.08;;;;;;;11.00;100.00;100398.41;5024081;28;20049;-81
2024/02/16 03:53:13;;;;;;;5.30;1.10;;;;;;;10.99;100.00;100400.16;5024948;28;20045;-82
2024/02/16 03:55:41;;;;;;;4.82;1.58;;;;;;;10.99;100.00;100401.88;5042634;28;20474;-80
2024/02/16 03:58:12;;;;;;;3.20;1.38;;;;;;;10.93;100.00;100408.94;5044742;28;20037;-81
2024/02/16 04:00:39;;;;;;;2.15;1.05;;;;;;;10.91;100.00;100402.88;5025047;28;20436;-81
2024/02/16 04:03:06;;;;;;;2.83;1.40;;;;;;;10.88;100.00;100405.53;5044038;28;20064;-82
2024/02/16 04:05:34;;;;;;;4.10;1.10;;;;;;;10.86;100.00;100399.47;5023767;28;20053;-81
2024/02/16 04:08:03;;;;;;;7.25;2.20;;;;;;;10.89;100.00;100398.56;5043669;28;20037;-82
2024/02/16 04:10:31;;;;;;;4.68;1.23;;;;;;;10.87;100.00;100401.22;5041745;28;20045;-82
2024/02/16 04:12:58;;;;;;;1.60;1.50;;;;;;;10.87;100.00;100401.22;5025896;28;20885;-81
2024/02/16 04:15:24;;;;;;;2.38;1.30;;;;;;;10.87;100.00;100398.59;5028435;28;20056;-82
2024/02/16 04:17:51;;;;;;;1.42;1.33;;;;;;;10.86;100.00;100391.63;5042065;28;20045;-81
2024/02/16 04:20:20;;;;;;;3.85;1.67;;;;;;;10.87;100.00;100405.56;5041175;28;20042;-81
2024/02/16 04:22:50;;;;;;;3.83;1.20;;;;;;;10.91;100.00;100400.28;5038308;28;20042;-81
2024/02/16 04:25:20;;;;;;;3.10;1.20;;;;;;;10.92;100.00;100394.16;5043070;28;20040;-82
2024/02/16 04:27:50;;;;;;;4.28;1.20;;;;;;;10.92;100.00;100388.03;5058679;28;20036;-82
2024/02/16 04:30:17;;;;;;;5.18;1.30;;;;;;;10.96;100.00;100384.47;5029197;28;20045;-82
2024/02/16 04:32:45;;;;;;;1.80;1.23;;;;;;;10.99;100.00;100391.41;5036943;28;20104;-82
2024/02/16 04:35:12;;;;;;;4.47;1.05;;;;;;;10.99;100.00;100387.06;5030090;28;20055;-81
2024/02/16 04:37:40;;;;;;;1.75;1.00;;;;;;;11.06;100.00;100390.44;5024882;28;20098;-82
2024/02/16 04:40:09;;;;;;;2.03;1.05;;;;;;;11.12;100.00;100386.88;5043835;28;20044;-80
2024/02/16 04:42:36;;;;;;;1.90;1.75;;;;;;;11.14;100.00;100385.94;5025672;28;20053;-81
2024/02/16 04:45:02;;;;;;;3.28;1.30;;;;;;;11.19;100.00;100383.28;5026740;28;20077;-81
2024/02/16 04:47:29;;;;;;;1.00;1.00;;;;;;;11.21;100.00;100382.34;5007823;28;20112;-83
2024/02/16 04:49:56;;;;;;;1.77;1.20;;;;;;;11.23;100.00;100380.56;4993203;28;20660;-81
2024/02/16 04:52:23;;;;;;;1.25;1.15;;;;;;;11.22;100.00;100381.47;4990839;28;20583;-81
2024/02/16 04:54:49;;;;;;;5.00;1.40;;;;;;;11.24;100.00;100381.44;5025163;28;20041;-82
2024/02/16 04:57:16;;;;;;;1.38;0.90;;;;;;;11.25;100.00;100384.03;4990055;28;20139;-81
2024/02/16 04:59:42;;;;;;;1.20;1.00;;;;;;;11.28;100.00;100388.34;4993994;28;20547;-82
2024/02/16 05:02:09;;;;;;;3.20;1.00;;;;;;;11.27;100.00;100384.00;5012342;28;20120;-81
2024/02/16 05:04:35;;;;;;;3.70;1.10;;;;;;;11.25;100.00;100381.41;4992786;28;20633;-81
2024/02/16 05:07:04;;;;;;;3.60;1.35;;;;;;;11.21;100.00;100373.59;5005840;28;20049;-80
2024/02/16 05:09:36;;;;;;;1.13;1.10;;;;;;;11.18;100.00;100374.53;5008912;28;20050;-79
2024/02/16 05:12:06;;;;;;;1.42;1.00;;;;;;;11.19;100.00;100375.41;4989342;28;20137;-81
2024/02/16 05:14:37;;;;;;;3.53;1.58;;;;;;;11.18;100.00;100379.75;5005489;28;20054;-81
2024/02/16 05:17:04;;;;;;;2.63;1.27;;;;;;;11.19;100.00;100388.50;4970750;28;20057;-81
2024/02/16 05:19:36;;;;;;;1.52;1.33;;;;;;;11.16;100.00;100397.28;4994462;28;20072;-82
2024/02/16 05:22:06;;;;;;;2.28;0.90;;;;;;;11.16;100.00;100391.16;5010648;28;20059;-82
2024/02/16 05:24:33;;;;;;;1.92;1.48;;;;;;;11.13;100.00;100394.69;4990596;28;20515;-82
2024/02/16 05:27:02;;;;;;;2.47;1.65;;;;;;;11.17;100.00;100390.28;4987259;28;20045;-81
2024/02/16 05:29:30;;;;;;;3.08;1.17;;;;;;;11.18;100.00;100397.25;4983716;28;20046;-81
2024/02/16 05:31:57;;;;;;;1.83;1.73;;;;;;;11.18;100.00;100397.25;5008643;28;20056;-82
2024/02/16 05:34:26;;;;;;;5.22;1.08;;;;;;;11.20;100.00;100390.25;4994281;28;20082;-82
2024/02/16 05:36:53;;;;;;;6.47;1.20;;;;;;;11.21;100.00;100392.84;4992992;28;20119;-82
2024/02/16 05:39:31;;;;;;;0.77;0.77;;;;;;;11.22;100.00;100384.09;5009432;28;20084;-81
2024/02/16 05:41:59;;;;;;;1.20;1.10;;;;;;;11.23;100.00;100387.56;5022779;28;20049;-82
2024/02/16 05:44:26;;;;;;;1.23;0.80;;;;;;;11.20;100.00;100378.00;5007706;28;20067;-81
2024/02/16 05:46:53;;;;;;;2.33;1.00;;;;;;;11.17;100.00;100375.44;5028826;28;20664;-82
2024/02/16 05:49:19;;;;;;;1.05;1.05;;;;;;;11.12;100.00;100379.88;5023307;28;20139;-81
2024/02/16 05:52:17;;;;;;;2.08;1.38;;;;;;;11.06;100.00;100379.97;5047486;28;20064;-80
2024/02/16 05:54:33;;;;;;;2.53;1.10;;;;;;;11.01;100.00;100380.03;5046775;28;20676;-83
2024/02/16 05:57:00;;;;;;;5.35;1.02;;;;;;;10.98;100.00;100376.63;5043356;28;20607;-82
2024/02/16 05:59:28;;;;;;;3.45;1.48;;;;;;;10.90;100.00;100379.34;5025480;28;20049;-81
2024/02/16 06:01:55;;;;;;;1.45;0.80;;;;;;;10.85;100.00;100374.16;5030758;28;20040;-82
2024/02/16 06:04:21;;;;;;;3.40;1.10;;;;;;;10.87;100.00;100376.75;5031179;28;20045;-81
2024/02/16 06:06:53;;;;;;;3.13;1.15;;;;;;;10.88;100.00;100378.50;5033947;28;20068;-81
2024/02/16 06:09:20;;;;;;;1.83;0.98;;;;;;;10.89;100.00;100373.22;5049822;28;20037;-82
2024/02/16 06:11:48;;;;;;;4.95;0.95;;;;;;;10.86;100.00;100373.28;5036907;28;20049;-81
2024/02/16 06:14:16;;;;;;;1.95;1.27;;;;;;;10.84;100.00;100364.56;5056556;28;20052;-81
2024/02/16 06:16:43;;;;;;;1.27;1.17;;;;;;;10.86;100.00;100369.78;5022760;28;20070;-82
2024/02/16 06:19:10;;;;;;;1.23;1.13;;;;;;;10.85;100.00;100360.22;5064149;28;20723;-81
2024/02/16 06:21:39;;;;;;;2.80;1.00;;;;;;;10.87;100.00;100366.28;5032901;28;20045;-80
2024/02/16 06:24:10;;;;;;;3.13;1.50;;;;;;;10.86;100.00;100362.81;5047003;28;20079;-83
2024/02/16 06:26:37;;;;;;;1.92;1.25;;;;;;;10.84;100.00;100361.09;5019380;28;20041;-81
2024/02/16 06:29:10;;;;;;;1.48;1.10;;;;;;;10.81;100.00;100361.13;5033820;28;20045;-82
2024/02/16 06:31:39;;;;;;;2.58;1.33;;;;;;;10.81;100.00;100371.59;5036240;28;20052;-82
2024/02/16 06:34:09;;;;;;;2.90;1.35;;;;;;;10.80;100.00;100373.34;5063171;28;20049;-80
2024/02/16 06:36:38;;;;;;;2.42;1.55;;;;;;;10.79;100.00;100376.00;5036173;28;20053;-83
2024/02/16 06:39:06;;;;;;;1.10;1.00;;;;;;;10.75;100.00;100378.69;5035361;28;20802;-80
2024/02/16 06:41:37;;;;;;;1.58;1.40;;;;;;;10.74;100.00;100384.78;5033434;28;20048;-81
2024/02/16 06:44:10;;;;;;;5.75;2.00;;;;;;;10.79;100.00;100384.72;5048953;28;20140;-80
2024/02/16 06:46:37;;;;;;;1.40;1.20;;;;;;;10.83;100.00;100391.63;5037986;28;20090;-80
2024/02/16 06:49:03;;;;;;;2.45;1.70;;;;;;;10.84;100.00;100387.28;5044690;28;20091;-81
2024/02/16 06:51:31;;;;;;;3.33;1.40;;;;;;;10.90;100.00;100390.69;5050277;28;20053;-82
2024/02/16 06:54:01;;;;;;;4.80;1.75;;;;;;;10.93;100.00;100388.00;5051993;28;20470;-80
2024/02/16 06:56:28;;;;;;;4.03;1.45;;;;;;;10.98;100.00;100397.56;5031245;28;20049;-82
2024/02/16 06:58:54;;;;;;;3.55;1.42;;;;;;;11.02;100.00;100397.47;5040239;28;20048;-80
2024/02/16 07:01:23;;;;;;;5.88;1.73;;;;;;;11.09;100.00;100393.91;5020080;28;20060;-80
2024/02/16 07:03:51;;;;;;;6.78;1.45;;;;;;;11.15;100.00;100395.53;5037139;28;20044;-81
2024/02/16 07:06:18;;;;;;;1.85;1.20;;;;;;;11.20;100.00;100400.72;5035820;28;20040;-80
2024/02/16 07:08:45;;;;;;;6.20;1.60;;;;;;;11.20;100.00;100395.50;5031482;28;20601;-81
2024/02/16 07:11:14;;;;;;;3.65;1.38;;;;;;;11.22;100.00;100409.41;5054532;28;20057;-82
2024/02/16 07:13:43;;;;;;;2.88;1.60;;;;;;;11.23;100.00;100408.53;5034422;28;20079;-82
2024/02/16 07:16:09;;;;;;;2.13;1.30;;;;;;;11.23;100.00;100403.28;5052547;28;20095;-80
2024/02/16 07:18:37;;;;;;;2.50;1.55;;;;;;;11.21;100.00;100405.06;5047814;28;20136;-80
2024/02/16 07:21:06;;;;;;;2.30;1.80;;;;;;;11.19;100.00;100407.69;5051720;28;20780;-82
2024/02/16 07:23:33;;;;;;;2.22;1.50;;;;;;;11.26;100.00;100416.31;5036161;28;20054;-81
2024/02/16 07:26:01;;;;;;;5.40;1.40;;;;;;;11.29;100.00;100416.31;5038266;28;20127;-80
2024/02/16 07:28:28;;;;;;;6.60;1.58;;;;;;;11.30;100.00;100417.16;5052594;28;20039;-81
2024/02/16 07:30:59;;;;;;;3.08;1.55;;;;;;;11.38;100.00;100418.78;5036947;28;20048;-81
2024/02/16 07:33:29;;;;;;;3.05;1.70;;;;;;;11.42;100.00;100427.47;5038936;28;20055;-80
2024/02/16 07:35:56;;;;;;;1.92;1.75;;;;;;;11.56;100.00;100428.09;5033725;28;20044;-80
2024/02/16 07:38:22;;;;;;;3.70;1.38;;;;;;;11.78;100.00;100419.84;5037069;28;20033;-81
2024/02/16 07:40:51;;;;;;;2.65;1.23;;;;;;;11.72;100.00;100409.44;5036312;28;20488;-81
2024/02/16 07:43:21;;;;;;;2.90;1.52;;;;;;;11.77;100.00;100410.25;5037014;28;20060;-82
2024/02/16 07:45:50;;;;;;;2.65;1.48;;;;;;;11.79;100.00;100413.72;5029899;28;20057;-81
2024/02/16 07:48:17;;;;;;;3.25;1.70;;;;;;;11.82;100.00;100410.16;5027735;28;20123;-80
2024/02/16 07:50:45;;;;;;;3.20;1.50;;;;;;;11.85;100.00;100405.75;5026235;28;20842;-81
2024/02/16 07:53:15;;;;;;;4.97;1.95;;;;;;;11.89;100.00;100401.31;5062746;28;20137;-81
2024/02/16 07:55:41;;;;;;;1.52;1.42;;;;;;;11.97;100.00;100395.91;5047248;28;20560;-81
2024/02/16 07:58:09;;;;;;;2.90;1.38;;;;;;;12.04;100.00;100406.28;5029860;28;20538;-80
2024/02/16 08:00:39;;;;;;;1.65;1.27;;;;;;;12.07;100.00;100405.34;5045442;28;20071;-81
2024/02/16 08:03:08;;;;;;;5.20;1.42;;;;;;;12.10;100.00;100413.19;5044852;28;20458;-80
2024/02/16 08:05:35;;;;;;;1.70;1.13;;;;;;;12.24;100.00;100416.41;5044646;28;20130;-81
2024/02/16 08:08:01;;;;;;;2.72;1.42;;;;;;;12.28;100.00;100414.59;5028569;28;20048;-81
2024/02/16 08:10:35;;;;;;;1.95;1.25;;;;;;;12.36;100.00;100423.16;5031796;28;20049;-80
2024/02/16 08:13:02;;;;;;;7.43;1.30;;;;;;;12.44;100.00;100422.13;5031688;28;20145;-82
2024/02/16 08:15:31;;;;;;;3.25;1.35;;;;;;;12.45;100.00;100432.63;5030547;28;20115;-82
2024/02/16 08:18:01;;;;;;;1.70;0.95;;;;;;;12.37;100.00;100424.00;5038230;28;20040;-80
2024/02/16 08:20:30;;;;;;;1.88;1.15;;;;;;;12.36;100.00;100419.69;5026211;28;20044;-81
2024/02/16 08:22:59;;;;;;;7.75;1.10;;;;;;;12.39;100.00;100432.75;5039234;28;20052;-81
2024/02/16 08:25:26;;;;;;;1.70;1.45;;;;;;;12.40;100.00;100429.22;5042162;28;20055;-81
2024/02/16 08:27:53;;;;;;;4.13;1.48;;;;;;;12.37;100.00;100413.53;5033963;28;20057;-80
2024/02/16 08:30:19;;;;;;;1.35;1.27;;;;;;;12.39;100.00;100428.34;5032237;28;20051;-82
2024/02/16 08:32:47;;;;;;;5.15;1.30;;;;;;;12.45;100.00;100413.38;5046160;28;20508;-82
2024/02/16 08:35:16;;;;;;;3.13;1.10;;;;;;;12.50;100.00;100415.03;5043315;28;20041;-81
2024/02/16 08:37:44;;;;;;;2.75;1.35;;;;;;;12.51;100.00;100419.34;5026467;28;20053;-81
2024/02/16 08:40:15;;;;;;;1.58;1.48;;;;;;;12.69;100.00;100420.72;5045170;28;20041;-81
2024/02/16 08:42:42;;;;;;;3.88;1.52;;;;;;;12.81;100.00;100416.13;5044806;28;20052;-82
2024/02/16 08:45:10;;;;;;;1.60;1.27;;;;;;;12.95;100.00;100407.94;5024420;28;20435;-80
2024/02/16 08:47:37;;;;;;;3.20;1.42;;;;;;;13.02;100.00;100410.38;5008816;28;20049;-81
2024/02/16 08:50:08;;;;;;;5.88;1.60;;;;;;;13.11;100.00;100403.19;5030806;28;20373;-81
2024/02/16 08:52:39;;;;;;;5.45;2.55;;;;;;;13.19;100.00;100412.63;5046624;28;20506;-80
2024/02/16 08:55:06;;;;;;;4.70;2.78;;;;;;;13.18;100.00;100413.50;5042875;28;20508;-80
2024/02/16 08:57:33;;;;;;;6.28;1.50;;;;;;;13.20;100.00;100419.59;5028588;28;20060;-82
2024/02/16 09:00:00;;;;;;;5.75;1.80;;;;;;;13.22;100.00;100407.28;5028793;28;20049;-81
2024/02/16 09:02:27;;;;;;;3.97;1.58;;;;;;;13.27;100.00;100416.81;5029639;28;20094;-81
2024/02/16 09:04:53;;;;;;;1.80;1.67;;;;;;;13.23;100.00;100403.75;5044257;28;20125;-80
2024/02/16 09:07:20;;;;;;;4.40;1.85;;;;;;;13.27;100.00;100401.94;5029907;28;20049;-82
2024/02/16 09:09:48;;;;;;;3.05;1.90;;;;;;;13.34;100.00;100403.50;5028090;28;20504;-82
2024/02/16 09:12:15;;;;;;;1.50;1.35;;;;;;;13.36;100.00;100393.84;5048019;28;20049;-83
2024/02/16 09:14:41;;;;;;;5.20;1.27;;;;;;;13.43;100.00;100406.81;5042181;28;20703;-81
2024/02/16 09:17:08;;;;;;;5.53;1.60;;;;;;;13.45;100.00;100400.63;5037651;28;20122;-81
2024/02/16 09:19:35;;;;;;;2.35;1.10;;;;;;;13.47;100.00;100404.09;5024161;28;20042;-81
2024/02/16 09:22:03;;;;;;;1.20;1.10;;;;;;;13.49;100.00;100391.78;5027452;28;20592;-81
2024/02/16 09:24:30;;;;;;;1.58;1.48;;;;;;;13.56;100.00;100406.47;5028780;28;20032;-81
2024/02/16 09:27:01;;;;;;;1.20;0.77;;;;;;;13.67;100.00;100410.59;5043865;28;20057;-82
2024/02/16 09:29:33;;;;;;;2.13;1.25;;;;;;;13.68;99.75;100409.72;5027722;28;20071;-81
2024/02/16 09:32:00;;;;;;;2.80;1.38;;;;;;;13.75;99.05;100413.03;5028253;28;20439;-82
2024/02/16 09:34:27;;;;;;;1.30;1.20;;;;;;;13.80;99.01;100417.28;5024737;28;20048;-81
2024/02/16 09:36:57;;;;;;;3.20;1.20;;;;;;;13.71;98.79;100414.88;5036651;28;20042;-82
2024/02/16 09:39:24;;;;;;;1.85;1.20;;;;;;;13.85;98.63;100420.66;5025597;28;20512;-82
2024/02/16 09:41:53;;;;;;;1.95;1.42;;;;;;;13.94;97.85;100422.19;5021361;28;20455;-82
2024/02/16 09:44:25;;;;;;;2.42;1.30;;;;;;;14.02;97.88;100430.72;5029738;28;20055;-81
2024/02/16 09:46:55;;;;;;;5.47;1.20;;;;;;;14.09;97.66;100431.41;5028834;28;20143;-81
2024/02/16 09:49:24;;;;;;;2.00;1.25;;;;;;;14.16;96.69;100435.63;5061848;28;20088;-82
2024/02/16 09:51:57;;;;;;;1.80;1.40;;;;;;;14.27;97.50;100442.34;5042283;28;20431;-81
2024/02/16 09:54:25;;;;;;;2.20;1.20;;;;;;;14.16;97.23;100434.78;5027419;28;20087;-81
2024/02/16 09:56:51;;;;;;;2.63;1.42;;;;;;;14.10;97.05;100445.47;5037962;28;20048;-81
2024/02/16 09:59:19;;;;;;;2.92;1.38;;;;;;;14.13;97.45;100446.25;5027547;28;20101;-81
2024/02/16 10:01:45;;;;;;;3.67;1.45;;;;;;;14.15;97.63;100451.47;5025822;28;20071;-80
2024/02/16 10:04:12;;;;;;;3.70;1.30;;;;;;;14.09;97.24;100449.84;5023681;28;20067;-81
2024/02/16 10:06:49;;;;;;;3.47;0.98;;;;;;;14.03;97.38;100452.66;5018599;28;20978;-81
2024/02/16 10:09:36;;;;;;;4.25;1.10;;;;;;;14.03;97.75;100450.88;5043572;28;20045;-82
2024/02/16 10:12:03;;;;;;;3.20;1.27;;;;;;;14.03;98.07;100450.88;5042490;28;20060;-82
2024/02/16 10:14:31;;;;;;;3.38;1.33;;;;;;;13.97;98.60;100448.41;5041434;28;20049;-81
2024/02/16 10:17:07;;;;;;;2.45;1.20;;;;;;;14.04;98.13;100447.34;5043235;28;20087;-83
2024/02/16 10:19:39;;;;;;;2.40;1.20;;;;;;;14.11;97.97;100453.31;5031606;28;20049;-84
2024/02/16 10:22:11;;;;;;;1.10;0.98;;;;;;;14.09;97.39;100462.16;5048987;28;20041;-83
2024/02/16 10:24:38;;;;;;;5.43;1.48;;;;;;;14.26;97.24;100461.69;5016215;28;20064;-84
2024/02/16 10:27:07;;;;;;;1.40;1.30;;;;;;;14.31;96.96;100468.53;5030178;28;20488;-83
2024/02/16 10:29:38;;;;;;;3.40;1.73;;;;;;;14.30;96.51;100471.22;5026379;28;20913;-82
2024/02/16 10:32:06;;;;;;;1.58;1.45;;;;;;;14.26;97.09;100470.44;5061729;28;20528;-83
2024/02/16 10:34:37;;;;;;;2.45;1.00;;;;;;;14.26;97.23;100466.97;5026497;28;20045;-82
2024/02/16 10:37:13;;;;;;;3.03;1.25;;;;;;;14.13;97.87;100474.31;5026393;28;20136;-81
2024/02/16 10:39:42;;;;;;;1.50;1.40;;;;;;;14.12;98.47;100484.00;5026883;28;20420;-82
2024/02/16 10:42:10;;;;;;;1.02;0.90;;;;;;;14.14;98.44;100487.44;5026800;28;20052;-82
2024/02/16 10:44:38;;;;;;;3.22;1.40;;;;;;;14.15;98.56;100494.44;5029232;28;20048;-83
2024/02/16 10:47:05;;;;;;;6.47;1.60;;;;;;;14.17;98.73;100482.09;5043854;28;20091;-83
2024/02/16 10:49:35;;;;;;;1.77;1.60;;;;;;;14.29;98.26;100474.75;5037240;28;20041;-82
2024/02/16 10:52:05;;;;;;;1.55;1.23;;;;;;;14.35;97.89;100482.50;5028865;28;20676;-84
2024/02/16 10:54:34;;;;;;;3.13;1.40;;;;;;;14.41;96.10;100470.97;5043909;28;20047;-81
2024/02/16 10:57:10;;;;;;;1.58;1.25;;;;;;;14.65;94.08;100474.69;5044173;28;20075;-82
2024/02/16 10:59:45;;;;;;;2.47;1.38;;;;;;;14.75;92.69;100475.28;5028906;28;20040;-82
2024/02/16 11:02:12;;;;;;;2.53;1.15;;;;;;;14.75;92.04;100477.94;5029528;28;20041;-82
2024/02/16 11:04:51;;;;;;;2.20;1.42;;;;;;;14.76;91.46;100483.16;5030649;28;20033;-83
2024/02/16 11:07:20;;;;;;;2.22;1.45;;;;;;;14.81;89.85;100483.00;5017345;28;20041;-82
2024/02/16 11:09:49;;;;;;;3.83;1.70;;;;;;;14.91;88.45;100484.44;5050030;28;20036;-82
2024/02/16 11:12:16;;;;;;;2.78;1.45;;;;;;;15.05;87.86;100481.41;5036827;28;20067;-81
2024/02/16 11:14:52;;;;;;;2.47;1.73;;;;;;;15.05;87.09;100482.25;5014815;28;20048;-81
2024/02/16 11:17:24;;;;;;;2.17;1.00;;;;;;;14.97;87.59;100483.44;5032573;28;20052;-82
2024/02/16 11:19:55;;;;;;;10.98;2.00;;;;;;;15.03;88.04;100480.59;5033954;28;20041;-81
2024/02/16 11:22:21;;;;;;;2.65;1.08;;;;;;;14.93;87.71;100476.50;5031164;28;20136;-81
2024/02/16 11:24:50;;;;;;;1.65;1.08;;;;;;;14.94;88.86;100480.88;5033076;28;20099;-81